createdAt,value
2022-12-29T00:02:00.247Z,17.38
2022-12-29T00:04:26.876Z,20.23
2022-12-29T00:06:54.633Z,18.25
2022-12-29T00:09:21.580Z,20.58
2022-12-29T00:11:48.443Z,22.35
2022-12-29T00:14:33.687Z,17.40
2022-12-29T00:17:00.503Z,12.70
2022-12-29T00:19:46.113Z,16.48
2022-12-29T00:22:33.725Z,13.68
2022-12-29T00:25:19.985Z,15.05
2022-12-29T00:28:07.407Z,15.40
2022-12-29T00:30:55.387Z,11.65
2022-12-29T00:33:44.669Z,13.13
2022-12-29T00:36:14.551Z,14.93
2022-12-29T00:39:04.615Z,14.93
2022-12-29T00:41:49.932Z,15.10
2022-12-29T00:44:16.859Z,16.73
2022-12-29T00:46:44.875Z,16.08
2022-12-29T00:49:31.993Z,21.92
2022-12-29T00:52:07.013Z,17.05
2022-12-29T00:54:36.247Z,14.45
2022-12-29T00:57:04.302Z,15.38
2022-12-29T00:59:31.609Z,16.67
2022-12-29T01:01:58.654Z,17.17
2022-12-29T01:04:27.409Z,16.20
2022-12-29T01:06:54.398Z,17.77
2022-12-29T01:09:40.289Z,14.75
2022-12-29T01:12:09.487Z,15.32
2022-12-29T01:14:37.147Z,16.38
2022-12-29T01:17:04.974Z,13.50
2022-12-29T01:19:33.201Z,14.02
2022-12-29T01:22:01.144Z,10.50
2022-12-29T01:24:28.833Z,14.88
2022-12-29T01:26:55.806Z,12.38
2022-12-29T01:29:23.005Z,13.70
2022-12-29T01:31:50.850Z,14.48
2022-12-29T01:34:18.836Z,12.10
2022-12-29T01:36:45.601Z,13.60
2022-12-29T01:39:13.308Z,12.85
2022-12-29T01:41:41.128Z,16.20
2022-12-29T01:44:45.387Z,16.92
2022-12-29T01:47:12.106Z,14.05
2022-12-29T01:49:39.503Z,15.20
2022-12-29T01:52:09.080Z,15.52
2022-12-29T01:54:43.680Z,14.57
2022-12-29T01:57:16.739Z,16.13
2022-12-29T01:59:52.148Z,18.13
2022-12-29T02:02:19.119Z,17.15
2022-12-29T02:04:45.722Z,16.05
2022-12-29T02:07:20.552Z,13.55
2022-12-29T02:09:49.917Z,14.25
2022-12-29T02:12:18.921Z,16.38
2022-12-29T02:14:46.512Z,16.83
2022-12-29T02:17:19.807Z,14.85
2022-12-29T02:20:20.509Z,16.10
2022-12-29T02:23:24.277Z,14.43
2022-12-29T02:26:15.421Z,15.00
2022-12-29T02:29:13.177Z,16.00
2022-12-29T02:31:52.146Z,14.75
2022-12-29T02:34:43.515Z,19.98
2022-12-29T02:37:40.254Z,13.55
2022-12-29T02:40:20.085Z,14.80
2022-12-29T02:42:51.884Z,16.52
2022-12-29T02:45:31.306Z,15.85
2022-12-29T02:48:04.641Z,16.27
2022-12-29T02:50:39.059Z,14.68
2022-12-29T02:53:10.300Z,17.00
2022-12-29T02:55:36.964Z,18.05
2022-12-29T02:58:09.560Z,14.82
2022-12-29T03:00:49.484Z,15.27
2022-12-29T03:03:34.202Z,18.30
2022-12-29T03:06:03.919Z,15.70
2022-12-29T03:08:40.172Z,18.77
2022-12-29T03:11:32.285Z,14.18
2022-12-29T03:14:44.801Z,17.33
2022-12-29T03:17:40.346Z,17.00
2022-12-29T03:20:18.564Z,19.63
2022-12-29T03:22:50.364Z,15.85
2022-12-29T03:25:39.172Z,15.52
2022-12-29T03:28:19.169Z,16.20
2022-12-29T03:30:48.216Z,13.75
2022-12-29T03:33:22.777Z,16.70
2022-12-29T03:35:53.032Z,16.70
2022-12-29T03:38:30.735Z,14.38
2022-12-29T03:41:00.575Z,16.83
2022-12-29T03:43:30.319Z,14.38
2022-12-29T03:45:57.504Z,23.52
2022-12-29T03:48:24.634Z,16.30
2022-12-29T03:50:54.568Z,15.85
2022-12-29T03:53:23.238Z,13.88
2022-12-29T03:55:50.613Z,14.70
2022-12-29T03:58:17.327Z,15.73
2022-12-29T04:01:03.625Z,13.73
2022-12-29T04:03:32.929Z,12.95
2022-12-29T04:05:59.597Z,12.77
2022-12-29T04:08:28.227Z,14.43
2022-12-29T04:10:54.968Z,15.57
2022-12-29T04:13:24.043Z,14.32
2022-12-29T04:15:52.665Z,12.48
2022-12-29T04:18:19.368Z,15.63
2022-12-29T04:21:01.764Z,13.20
2022-12-29T04:23:31.612Z,14.27
2022-12-29T04:25:58.799Z,13.20
2022-12-29T04:28:26.979Z,13.20
2022-12-29T04:31:05.118Z,12.02
2022-12-29T04:33:37.350Z,12.82
2022-12-29T04:36:04.419Z,10.88
2022-12-29T04:38:31.557Z,11.50
2022-12-29T04:41:01.580Z,10.30
2022-12-29T04:43:30.141Z,11.15
2022-12-29T04:46:17.176Z,12.48
2022-12-29T04:48:53.073Z,12.18
2022-12-29T04:51:35.484Z,11.30
2022-12-29T04:54:02.390Z,9.48
2022-12-29T04:56:29.789Z,8.70
2022-12-29T04:58:58.092Z,10.27
2022-12-29T05:01:24.711Z,17.85
2022-12-29T05:03:52.950Z,7.78
2022-12-29T05:06:19.653Z,11.65
2022-12-29T05:08:46.391Z,9.65
2022-12-29T05:11:13.101Z,8.60
2022-12-29T05:13:40.109Z,8.70
2022-12-29T05:16:07.022Z,7.70
2022-12-29T05:18:33.772Z,8.05
2022-12-29T05:21:00.516Z,11.10
2022-12-29T05:23:28.349Z,8.65
2022-12-29T05:25:59.829Z,10.05
2022-12-29T05:28:32.006Z,9.13
2022-12-29T05:31:04.939Z,11.93
2022-12-29T05:33:32.553Z,10.18
2022-12-29T05:36:10.428Z,13.32
2022-12-29T05:38:41.140Z,13.80
2022-12-29T05:41:07.810Z,11.98
2022-12-29T05:43:46.628Z,13.18
2022-12-29T05:46:28.826Z,13.02
2022-12-29T05:49:08.604Z,12.90
2022-12-29T05:51:47.936Z,13.50
2022-12-29T05:54:14.720Z,10.75
2022-12-29T05:56:41.652Z,11.68
2022-12-29T05:59:09.254Z,10.60
2022-12-29T06:01:37.304Z,9.63
2022-12-29T06:04:04.268Z,11.35
2022-12-29T06:06:31.953Z,10.63
2022-12-29T06:08:58.895Z,11.65
2022-12-29T06:11:25.619Z,9.82
2022-12-29T06:13:55.915Z,11.63
2022-12-29T06:16:24.063Z,10.40
2022-12-29T06:18:54.534Z,11.30
2022-12-29T06:21:22.299Z,9.80
2022-12-29T06:23:49.002Z,10.20
2022-12-29T06:26:15.801Z,10.98
2022-12-29T06:28:43.838Z,10.88
2022-12-29T06:31:12.578Z,7.72
2022-12-29T06:33:40.076Z,9.95
2022-12-29T06:36:07.322Z,7.60
2022-12-29T06:38:34.068Z,8.65
2022-12-29T06:41:00.738Z,9.10
2022-12-29T06:43:46.050Z,9.88
2022-12-29T06:46:21.216Z,10.02
2022-12-29T06:48:47.922Z,9.95
2022-12-29T06:51:14.538Z,8.43
2022-12-29T06:53:41.397Z,9.93
2022-12-29T06:56:08.144Z,9.82
2022-12-29T06:58:34.800Z,13.90
2022-12-29T07:01:01.420Z,9.57
2022-12-29T07:03:28.244Z,6.80
2022-12-29T07:05:55.446Z,8.07
2022-12-29T07:08:22.167Z,8.02
2022-12-29T07:10:48.790Z,9.15
2022-12-29T07:13:15.513Z,8.95
2022-12-29T07:15:42.358Z,7.45
2022-12-29T07:18:09.034Z,6.95
2022-12-29T07:20:38.158Z,9.38
2022-12-29T07:23:04.933Z,8.43
2022-12-29T07:25:31.590Z,8.18
2022-12-29T07:27:58.278Z,8.30
2022-12-29T07:30:25.190Z,8.40
2022-12-29T07:32:52.032Z,9.30
2022-12-29T07:35:18.702Z,7.10
2022-12-29T07:37:45.384Z,7.07
2022-12-29T07:40:12.344Z,7.22
2022-12-29T07:42:39.097Z,7.25
2022-12-29T07:45:10.207Z,5.93
2022-12-29T07:47:51.419Z,5.18
2022-12-29T07:50:18.175Z,6.00
2022-12-29T07:52:45.736Z,7.80
2022-12-29T07:55:12.494Z,8.38
2022-12-29T07:57:39.435Z,7.25
2022-12-29T08:00:06.699Z,8.25
2022-12-29T08:02:39.154Z,8.00
2022-12-29T08:05:06.660Z,8.40
2022-12-29T08:07:33.338Z,7.20
2022-12-29T08:10:00.237Z,10.75
2022-12-29T08:12:26.792Z,9.40
2022-12-29T08:14:53.576Z,7.97
2022-12-29T08:17:20.274Z,9.07
2022-12-29T08:19:46.891Z,8.00
2022-12-29T08:22:15.400Z,8.73
2022-12-29T08:24:42.201Z,9.27
2022-12-29T08:27:16.215Z,10.90
2022-12-29T08:29:46.976Z,11.15
2022-12-29T08:32:13.914Z,10.82
2022-12-29T08:34:40.652Z,12.50
2022-12-29T08:37:07.301Z,13.07
2022-12-29T08:39:33.965Z,11.45
2022-12-29T08:42:00.671Z,13.95
2022-12-29T08:44:27.486Z,13.25
2022-12-29T08:46:54.237Z,12.43
2022-12-29T08:49:20.925Z,15.10
2022-12-29T08:51:47.655Z,17.73
2022-12-29T08:54:14.577Z,13.35
2022-12-29T08:56:41.340Z,13.98
2022-12-29T08:59:08.790Z,18.75
2022-12-29T09:01:37.494Z,22.83
2022-12-29T09:04:14.753Z,15.35
2022-12-29T09:06:42.086Z,14.70
2022-12-29T09:09:08.745Z,12.88
2022-12-29T09:11:35.819Z,15.88
2022-12-29T09:14:02.753Z,12.52
2022-12-29T09:16:29.523Z,11.77
2022-12-29T09:18:56.203Z,10.93
2022-12-29T09:21:22.948Z,11.35
2022-12-29T09:23:49.885Z,17.13
2022-12-29T09:26:16.526Z,14.43
2022-12-29T09:28:43.370Z,13.65
2022-12-29T09:31:10.247Z,11.55
2022-12-29T09:33:37.167Z,12.15
2022-12-29T09:36:04.533Z,11.00
2022-12-29T09:38:31.449Z,11.68
2022-12-29T09:41:07.469Z,13.43
2022-12-29T09:44:04.778Z,10.23
2022-12-29T09:47:01.853Z,13.55
2022-12-29T09:49:43.830Z,10.00
2022-12-29T09:52:16.461Z,9.80
2022-12-29T09:55:00.089Z,11.25
2022-12-29T09:57:48.385Z,9.80
2022-12-29T10:00:21.536Z,10.73
2022-12-29T10:02:53.209Z,10.80
2022-12-29T10:05:47.405Z,12.15
2022-12-29T10:08:22.801Z,10.80
2022-12-29T10:11:04.311Z,11.05
2022-12-29T10:13:42.884Z,11.40
2022-12-29T10:16:38.660Z,14.20
2022-12-29T10:19:13.950Z,11.20
2022-12-29T10:22:03.710Z,11.75
2022-12-29T10:24:32.805Z,12.38
2022-12-29T10:27:00.357Z,16.15
2022-12-29T10:29:38.782Z,15.63
2022-12-29T10:32:19.685Z,18.52
2022-12-29T10:34:52.253Z,15.65
2022-12-29T10:37:18.931Z,14.20
2022-12-29T10:39:56.143Z,15.23
2022-12-29T10:42:38.429Z,12.85
2022-12-29T10:45:06.582Z,12.30
2022-12-29T10:47:43.596Z,14.18
2022-12-29T10:50:13.444Z,14.00
2022-12-29T10:52:41.605Z,16.02
2022-12-29T10:55:20.339Z,13.07
2022-12-29T10:57:48.200Z,13.80
2022-12-29T11:00:17.637Z,15.02
2022-12-29T11:02:59.598Z,16.40
2022-12-29T11:05:59.156Z,16.38
2022-12-29T11:08:29.361Z,15.07
2022-12-29T11:11:02.176Z,10.00
2022-12-29T11:13:36.733Z,12.43
2022-12-29T11:16:06.056Z,11.32
2022-12-29T11:18:38.332Z,12.73
2022-12-29T11:21:08.411Z,13.38
2022-12-29T11:23:36.818Z,13.55
2022-12-29T11:26:17.231Z,17.85
2022-12-29T11:29:04.165Z,16.30
2022-12-29T11:31:31.007Z,12.48
2022-12-29T11:33:57.698Z,13.27
2022-12-29T11:36:25.878Z,12.00
2022-12-29T11:38:55.621Z,11.75
2022-12-29T11:41:30.983Z,12.65
2022-12-29T11:44:01.164Z,16.25
2022-12-29T11:46:27.930Z,17.63
2022-12-29T11:48:59.259Z,11.63
2022-12-29T11:51:40.296Z,10.52
2022-12-29T11:54:07.183Z,12.90
2022-12-29T11:56:41.329Z,13.30
2022-12-29T11:59:42.047Z,13.70
2022-12-29T12:02:43.690Z,11.85
2022-12-29T12:06:04.738Z,11.57
2022-12-29T12:08:44.953Z,11.13
2022-12-29T12:11:26.381Z,23.48
2022-12-29T12:14:01.473Z,9.70
2022-12-29T12:16:40.485Z,9.48
2022-12-29T12:19:29.265Z,12.32
2022-12-29T12:22:21.179Z,13.65
2022-12-29T12:25:00.081Z,11.30
2022-12-29T12:27:32.588Z,7.03
2022-12-29T12:30:19.257Z,13.40
2022-12-29T12:32:45.881Z,10.70
2022-12-29T12:35:22.279Z,10.25
2022-12-29T12:37:55.465Z,12.50
2022-12-29T12:40:49.930Z,10.52
2022-12-29T12:43:31.695Z,9.30
2022-12-29T12:46:01.513Z,12.68
2022-12-29T12:48:49.270Z,9.80
2022-12-29T12:51:30.420Z,8.35
2022-12-29T12:54:13.747Z,9.80
2022-12-29T12:56:52.350Z,11.40
2022-12-29T13:00:00.153Z,7.63
2022-12-29T13:02:45.390Z,8.93
2022-12-29T13:05:33.692Z,8.93
2022-12-29T13:08:18.774Z,8.75
2022-12-29T13:11:17.052Z,9.00
2022-12-29T13:14:08.710Z,8.90
2022-12-29T13:17:00.329Z,8.82
2022-12-29T13:19:29.601Z,9.68
2022-12-29T13:22:21.476Z,8.32
2022-12-29T13:25:17.275Z,9.98
2022-12-29T13:28:25.582Z,11.27
2022-12-29T13:30:55.242Z,8.48
2022-12-29T13:33:47.434Z,9.13
2022-12-29T13:36:22.833Z,9.50
2022-12-29T13:39:16.174Z,9.63
2022-12-29T13:41:51.273Z,7.30
2022-12-29T13:44:28.031Z,9.20
2022-12-29T13:47:00.004Z,10.10
2022-12-29T13:49:28.063Z,11.23
2022-12-29T13:52:05.386Z,14.13
2022-12-29T13:54:40.785Z,13.73
2022-12-29T13:57:16.944Z,11.40
2022-12-29T13:59:53.113Z,14.27
2022-12-29T14:05:25.165Z,12.75
2022-12-29T14:08:04.099Z,10.93
2022-12-29T14:10:39.473Z,12.93
2022-12-29T14:13:16.678Z,12.40
2022-12-29T14:15:51.726Z,13.77
2022-12-29T14:18:27.537Z,10.52
2022-12-29T14:20:58.708Z,9.75
2022-12-29T14:23:35.627Z,9.65
2022-12-29T14:26:08.140Z,10.02
2022-12-29T14:28:40.377Z,8.95
2022-12-29T14:31:30.414Z,11.68
2022-12-29T14:34:12.445Z,12.95
2022-12-29T14:36:41.702Z,9.40
2022-12-29T14:39:43.495Z,9.32
2022-12-29T14:42:10.207Z,11.85
2022-12-29T14:44:49.381Z,8.90
2022-12-29T14:47:44.155Z,9.73
2022-12-29T14:50:33.442Z,8.57
2022-12-29T14:53:06.280Z,9.32
2022-12-29T14:55:43.778Z,11.73
2022-12-29T14:58:33.570Z,11.68
2022-12-29T15:01:01.463Z,14.30
2022-12-29T15:03:37.316Z,17.58
2022-12-29T15:06:13.727Z,18.70
2022-12-29T15:08:47.808Z,18.10
2022-12-29T15:11:18.205Z,13.50
2022-12-29T15:13:45.832Z,12.13
2022-12-29T15:16:27.499Z,13.45
2022-12-29T15:18:54.790Z,14.90
2022-12-29T15:21:30.932Z,15.32
2022-12-29T15:23:58.228Z,14.10
2022-12-29T15:26:39.078Z,16.27
2022-12-29T15:29:06.211Z,12.80
2022-12-29T15:31:32.855Z,12.10
2022-12-29T15:34:11.459Z,11.05
2022-12-29T15:36:40.355Z,14.68
2022-12-29T15:39:21.259Z,13.52
2022-12-29T15:42:02.732Z,11.18
2022-12-29T15:44:40.487Z,13.18
2022-12-29T15:47:15.399Z,11.95
2022-12-29T15:49:44.699Z,12.32
2022-12-29T15:52:12.137Z,11.77
2022-12-29T15:54:43.829Z,14.20
2022-12-29T15:57:24.254Z,12.55
2022-12-29T15:59:51.418Z,14.93
2022-12-29T16:02:19.502Z,14.68
2022-12-29T16:05:16.005Z,12.82
2022-12-29T16:07:41.536Z,14.90
2022-12-29T16:10:26.641Z,13.80
2022-12-29T16:12:53.704Z,16.60
2022-12-29T16:15:20.635Z,14.52
2022-12-29T16:17:54.345Z,14.85
2022-12-29T16:20:25.846Z,11.77
2022-12-29T16:23:01.567Z,13.68
2022-12-29T16:25:35.773Z,15.43
2022-12-29T16:28:15.726Z,11.23
2022-12-29T16:30:42.476Z,13.25
2022-12-29T16:33:33.670Z,16.42
2022-12-29T16:36:00.389Z,13.75
2022-12-29T16:38:34.072Z,13.40
2022-12-29T16:41:05.676Z,8.63
2022-12-29T16:43:42.757Z,13.73
2022-12-29T16:46:29.933Z,16.27
2022-12-29T16:48:58.428Z,13.82
2022-12-29T16:51:34.170Z,13.63
2022-12-29T16:54:01.875Z,12.13
2022-12-29T16:56:32.933Z,13.80
2022-12-29T16:59:08.705Z,11.07
2022-12-29T17:01:40.173Z,16.25
2022-12-29T17:04:12.232Z,16.30
2022-12-29T17:06:39.334Z,12.95
2022-12-29T17:09:32.039Z,12.40
2022-12-29T17:12:10.363Z,15.23
2022-12-29T17:14:46.706Z,14.52
2022-12-29T17:20:03.962Z,13.23
2022-12-29T17:22:31.648Z,16.35
2022-12-29T17:25:00.806Z,14.57
2022-12-29T17:27:50.775Z,17.67
2022-12-29T17:30:20.814Z,14.55
2022-12-29T17:32:53.118Z,15.75
2022-12-29T17:35:21.941Z,11.73
2022-12-29T17:37:49.446Z,13.45
2022-12-29T17:40:22.342Z,9.90
2022-12-29T17:42:52.376Z,12.88
2022-12-29T17:45:32.271Z,12.77
2022-12-29T17:48:02.880Z,12.50
2022-12-29T17:50:31.584Z,10.65
2022-12-29T17:53:07.218Z,9.43
2022-12-29T17:58:27.019Z,13.27
2022-12-29T18:00:56.215Z,15.02
2022-12-29T18:03:30.837Z,15.57
2022-12-29T18:05:58.144Z,15.95
2022-12-29T18:08:24.807Z,14.15
2022-12-29T18:10:53.920Z,13.23
2022-12-29T18:13:33.567Z,15.15
2022-12-29T18:16:06.103Z,14.30
2022-12-29T18:18:32.742Z,11.48
2022-12-29T18:21:00.327Z,12.82
2022-12-29T18:23:32.660Z,11.35
2022-12-29T18:26:03.507Z,12.80
2022-12-29T18:28:30.497Z,15.32
2022-12-29T18:30:59.114Z,16.98
2022-12-29T18:33:26.798Z,15.73
2022-12-29T18:36:05.303Z,14.40
2022-12-29T18:38:32.167Z,13.15
2022-12-29T18:40:59.355Z,12.15
2022-12-29T18:43:26.671Z,13.15
2022-12-29T18:45:53.303Z,14.80
2022-12-29T18:48:20.586Z,11.80
2022-12-29T18:50:51.774Z,9.38
2022-12-29T18:53:23.779Z,19.65
2022-12-29T18:55:54.211Z,20.45
2022-12-29T18:58:21.058Z,15.43
2022-12-29T19:00:47.803Z,13.10
2022-12-29T19:03:16.743Z,14.85
2022-12-29T19:05:45.217Z,17.00
2022-12-29T19:08:12.751Z,14.93
2022-12-29T19:10:42.024Z,20.90
2022-12-29T19:13:16.511Z,15.13
2022-12-29T19:15:44.055Z,19.50
2022-12-29T19:18:43.238Z,17.58
2022-12-29T19:21:03.209Z,16.98
2022-12-29T19:23:29.810Z,16.42
2022-12-29T19:25:56.514Z,16.00
2022-12-29T19:28:28.196Z,17.85
2022-12-29T19:30:59.715Z,20.17
2022-12-29T19:33:26.594Z,15.48
2022-12-29T19:35:53.294Z,13.88
2022-12-29T19:38:20.162Z,20.50
2022-12-29T19:40:50.179Z,15.55
2022-12-29T19:43:17.627Z,14.90
2022-12-29T19:45:45.454Z,19.20
2022-12-29T19:48:18.872Z,20.33
2022-12-29T19:50:46.564Z,21.27
2022-12-29T19:53:14.524Z,25.95
2022-12-29T19:55:46.058Z,22.40
2022-12-29T19:58:13.300Z,20.75
2022-12-29T20:00:41.722Z,20.60
2022-12-29T20:03:09.243Z,18.58
2022-12-29T20:05:36.354Z,23.20
2022-12-29T20:08:03.121Z,22.88
2022-12-29T20:10:29.899Z,21.80
2022-12-29T20:12:56.608Z,24.17
2022-12-29T20:15:23.327Z,34.10
2022-12-29T20:20:37.392Z,22.35
2022-12-29T20:23:04.179Z,25.90
2022-12-29T20:25:47.166Z,19.77
2022-12-29T20:28:15.928Z,24.65
2022-12-29T20:30:43.255Z,21.33
2022-12-29T20:33:10.028Z,20.65
2022-12-29T20:35:37.410Z,18.60
2022-12-29T20:38:04.873Z,19.85
2022-12-29T20:40:31.576Z,23.85
2022-12-29T20:42:58.262Z,23.08
2022-12-29T20:45:25.157Z,21.38
2022-12-29T20:47:52.139Z,22.45
2022-12-29T20:50:19.025Z,20.95
2022-12-29T20:52:46.826Z,17.08
2022-12-29T20:55:13.851Z,24.30
2022-12-29T20:58:14.221Z,26.13
2022-12-29T21:00:30.417Z,23.73
2022-12-29T21:02:59.057Z,23.05
2022-12-29T21:05:27.045Z,24.48
2022-12-29T21:07:54.615Z,25.80
2022-12-29T21:10:22.405Z,25.88
2022-12-29T21:12:49.403Z,22.40
2022-12-29T21:15:16.482Z,23.88
2022-12-29T21:17:44.179Z,22.65
2022-12-29T21:20:19.973Z,21.95
2022-12-29T21:22:48.572Z,24.10
2022-12-29T21:25:15.874Z,21.00
2022-12-29T21:27:44.077Z,22.30
2022-12-29T21:30:12.007Z,22.63
2022-12-29T21:32:39.567Z,27.55
2022-12-29T21:35:06.848Z,21.35
2022-12-29T21:37:34.065Z,25.88
2022-12-29T21:40:00.846Z,20.25
2022-12-29T21:42:27.657Z,19.55
2022-12-29T21:45:19.820Z,18.02
2022-12-29T21:48:05.826Z,18.70
2022-12-29T21:50:32.863Z,18.00
2022-12-29T21:52:59.424Z,20.45
2022-12-29T21:55:26.095Z,23.67
2022-12-29T21:58:11.344Z,17.95
2022-12-29T22:00:56.598Z,19.70
2022-12-29T22:03:41.896Z,16.85
2022-12-29T22:06:30.267Z,14.57
2022-12-29T22:09:15.814Z,18.48
2022-12-29T22:12:00.873Z,17.52
2022-12-29T22:14:27.536Z,18.55
2022-12-29T22:16:54.137Z,16.35
2022-12-29T22:19:20.925Z,14.50
2022-12-29T22:21:47.591Z,16.95
2022-12-29T22:24:14.297Z,13.95
2022-12-29T22:26:40.886Z,17.30
2022-12-29T22:29:07.759Z,15.48
2022-12-29T22:31:34.478Z,17.58
2022-12-29T22:34:03.117Z,15.68
2022-12-29T22:36:30.364Z,16.15
2022-12-29T22:38:57.139Z,20.15
2022-12-29T22:41:24.265Z,18.05
2022-12-29T22:43:51.016Z,14.20
2022-12-29T22:46:18.157Z,14.82
2022-12-29T22:48:44.900Z,16.58
2022-12-29T22:51:12.010Z,16.63
2022-12-29T22:53:39.546Z,19.77
2022-12-29T22:56:10.257Z,14.23
2022-12-29T22:58:48.174Z,23.98
2022-12-29T23:01:17.520Z,25.25
2022-12-29T23:03:45.122Z,24.33
2022-12-29T23:06:13.945Z,23.70
2022-12-29T23:08:40.675Z,28.75
2022-12-29T23:11:10.494Z,21.35
2022-12-29T23:13:37.774Z,19.73
2022-12-29T23:16:05.240Z,22.45
2022-12-29T23:18:31.830Z,18.42
2022-12-29T23:20:58.774Z,21.65
2022-12-29T23:23:48.742Z,23.60
2022-12-29T23:26:18.268Z,20.20
2022-12-29T23:28:45.528Z,20.63
2022-12-29T23:31:12.583Z,25.17
2022-12-29T23:33:39.309Z,23.02
2022-12-29T23:36:06.598Z,20.58
2022-12-29T23:38:33.638Z,24.05
2022-12-29T23:41:00.589Z,23.80
2022-12-29T23:43:27.357Z,25.13
2022-12-29T23:45:53.994Z,22.75
2022-12-29T23:48:20.669Z,24.15
2022-12-29T23:50:47.358Z,23.73
2022-12-29T23:53:14.265Z,21.55
2022-12-29T23:55:43.021Z,19.45
2022-12-29T23:58:10.389Z,20.92
